Time;durP1;ratioP1;P1;durP2;ratioP2;P2;SDS_P1;SDS_P2;PMS_P1;PMS_P2;Temp;Humidity;BMP_temperature;BMP_pressure;BME280_temperature;BME280_humidity;BME280_pressure;Samples;Min_cycle;Max_cycle;Signal;HPM_P1;HPM_P2
2024/01/11 00:00:13;;;;;;;21.23;9.10;;;;;;;-5.26;75.74;103088.16;5087274;28;20044;-71
2024/01/11 00:02:40;;;;;;;22.77;10.50;;;;;;;-5.25;76.39;103099.38;5083391;28;20044;-71
2024/01/11 00:05:08;;;;;;;16.55;8.60;;;;;;;-5.26;76.64;103098.47;5068966;28;20465;-72
2024/01/11 00:07:35;;;;;;;21.48;9.60;;;;;;;-5.23;76.65;103100.34;5087053;28;20048;-73
2024/01/11 00:10:03;;;;;;;20.85;10.10;;;;;;;-5.22;76.88;103097.00;5071475;28;20068;-72
2024/01/11 00:12:31;;;;;;;16.95;7.45;;;;;;;-5.22;77.03;103084.13;5071721;28;20656;-72
2024/01/11 00:14:59;;;;;;;18.77;9.27;;;;;;;-5.22;77.11;103091.84;5068741;28;20056;-72
2024/01/11 00:17:26;;;;;;;23.02;9.80;;;;;;;-5.22;76.97;103099.56;5095287;28;20044;-71
2024/01/11 00:19:53;;;;;;;18.75;8.20;;;;;;;-5.25;76.99;103091.66;5067678;28;20123;-72
2024/01/11 00:22:20;;;;;;;22.13;8.90;;;;;;;-5.28;77.39;103092.31;5068119;28;20052;-73
2024/01/11 00:24:47;;;;;;;25.15;11.13;;;;;;;-5.27;77.47;103103.50;5069011;28;20337;-73
2024/01/11 00:27:15;;;;;;;23.45;8.80;;;;;;;-5.30;77.51;103104.19;5067679;28;20052;-72
2024/01/11 00:29:42;;;;;;;21.10;9.35;;;;;;;-5.31;77.66;103100.69;5099025;28;20040;-72
2024/01/11 00:32:09;;;;;;;22.48;9.20;;;;;;;-5.33;77.34;103094.56;5076625;28;20097;-72
2024/01/11 00:34:36;;;;;;;18.92;8.95;;;;;;;-5.33;77.76;103097.13;5082793;28;20063;-72
2024/01/11 00:37:04;;;;;;;20.75;9.30;;;;;;;-5.37;77.88;103091.66;5084453;28;20050;-72
2024/01/11 00:39:31;;;;;;;17.63;8.85;;;;;;;-5.41;78.01;103090.53;5086110;28;20481;-72
2024/01/11 00:41:58;;;;;;;26.85;11.02;;;;;;;-5.41;77.95;103089.66;5104330;28;20125;-72
2024/01/11 00:44:25;;;;;;;16.05;7.85;;;;;;;-5.42;78.36;103099.03;5081688;28;20098;-71
2024/01/11 00:46:52;;;;;;;22.27;10.40;;;;;;;-5.47;78.27;103091.00;5093232;28;20043;-72
2024/01/11 00:49:20;;;;;;;22.73;9.63;;;;;;;-5.50;78.29;103093.38;5077892;28;20127;-72
2024/01/11 00:51:47;;;;;;;23.67;11.05;;;;;;;-5.48;78.46;103094.34;5091103;28;20120;-72
2024/01/11 00:54:14;;;;;;;14.98;7.45;;;;;;;-5.51;78.70;103096.72;5071633;28;20052;-73
2024/01/11 00:56:41;;;;;;;21.10;8.48;;;;;;;-5.55;78.93;103089.56;5071153;28;20618;-73
2024/01/11 00:59:08;;;;;;;30.30;12.23;;;;;;;-5.57;78.81;103097.94;5071999;28;20071;-73
2024/01/11 01:01:36;;;;;;;25.45;11.77;;;;;;;-5.57;79.48;103100.53;5072088;28;20527;-72
2024/01/11 01:04:03;;;;;;;23.83;10.93;;;;;;;-5.57;79.27;103103.09;5073482;28;20132;-72
2024/01/11 01:06:30;;;;;;;21.48;9.38;;;;;;;-5.58;79.42;103102.19;5103095;28;20047;-73
2024/01/11 01:08:57;;;;;;;21.58;8.90;;;;;;;-5.58;79.67;103109.00;5106043;28;20071;-73
2024/01/11 01:11:24;;;;;;;24.60;10.57;;;;;;;-5.62;79.45;103095.94;5079452;28;20124;-73
2024/01/11 01:13:51;;;;;;;25.38;9.65;;;;;;;-5.62;79.82;103098.50;5088900;28;20048;-73
2024/01/11 01:16:19;;;;;;;24.08;9.73;;;;;;;-5.63;79.79;103100.97;5077655;28;20086;-73
2024/01/11 01:18:46;;;;;;;33.55;11.07;;;;;;;-5.65;79.53;103100.88;5087040;28;20044;-73
2024/01/11 01:21:14;;;;;;;21.58;10.52;;;;;;;-5.67;79.58;103097.28;5070581;28;20041;-73
2024/01/11 01:23:41;;;;;;;24.75;9.98;;;;;;;-5.69;79.86;103101.41;5086026;28;20131;-73
2024/01/11 01:26:08;;;;;;;20.15;8.07;;;;;;;-5.69;79.66;103108.22;5089785;28;20081;-73
2024/01/11 01:28:36;;;;;;;15.73;7.80;;;;;;;-5.69;79.82;103110.78;5087381;28;20520;-73
2024/01/11 01:31:03;;;;;;;22.17;9.38;;;;;;;-5.70;79.86;103115.06;5081341;28;20515;-73
2024/01/11 01:33:30;;;;;;;22.85;11.68;;;;;;;-5.71;79.97;103112.38;5090256;28;20050;-73
2024/01/11 01:35:57;;;;;;;22.10;9.63;;;;;;;-5.72;80.08;103114.03;5078430;28;20074;-73
2024/01/11 01:38:24;;;;;;;19.00;8.63;;;;;;;-5.70;80.22;103127.91;5070195;28;20052;-73
2024/01/11 01:40:52;;;;;;;27.42;10.45;;;;;;;-5.71;79.82;103125.22;5085997;28;20056;-73
2024/01/11 01:43:19;;;;;;;24.58;9.30;;;;;;;-5.73;79.91;103119.06;5083514;28;20645;-73
2024/01/11 01:45:47;;;;;;;31.55;11.07;;;;;;;-5.79;79.61;103115.25;5086374;28;20119;-72
2024/01/11 01:48:14;;;;;;;24.83;11.00;;;;;;;-5.84;79.81;103111.47;5087983;28;20105;-72
2024/01/11 01:50:45;;;;;;;24.88;11.15;;;;;;;-5.86;79.54;103117.28;5082769;28;20032;-72
2024/01/11 01:53:12;;;;;;;31.63;11.90;;;;;;;-5.90;79.36;103115.25;5070791;28;20090;-72
2024/01/11 01:55:40;;;;;;;30.65;12.18;;;;;;;-5.96;79.58;103111.47;5072356;28;20044;-72
2024/01/11 01:58:07;;;;;;;28.58;11.40;;;;;;;-5.97;79.78;103121.63;5078915;28;20119;-72
2024/01/11 02:00:34;;;;;;;30.80;13.15;;;;;;;-5.98;80.06;103123.31;5085139;28;20098;-73
2024/01/11 02:03:01;;;;;;;21.77;8.68;;;;;;;-5.99;80.38;103123.19;5097184;28;20075;-72
2024/01/11 02:05:29;;;;;;;19.23;8.07;;;;;;;-5.99;80.38;103130.91;5081560;28;20495;-72
2024/01/11 02:07:59;;;;;;;24.10;10.07;;;;;;;-5.99;80.60;103138.63;5079778;28;20044;-73
2024/01/11 02:10:27;;;;;;;30.15;9.18;;;;;;;-6.01;80.83;103133.38;5075632;28;20044;-72
2024/01/11 02:12:54;;;;;;;32.03;9.02;;;;;;;-6.00;81.12;103144.56;5088705;28;20123;-72
2024/01/11 02:15:22;;;;;;;20.67;9.88;;;;;;;-6.00;81.31;103137.75;5088542;28;20052;-72
2024/01/11 02:17:49;;;;;;;21.38;9.18;;;;;;;-6.00;81.38;103137.75;5083623;28;20082;-72
2024/01/11 02:20:16;;;;;;;20.25;9.68;;;;;;;-6.01;81.00;103133.38;5076430;28;20063;-72
2024/01/11 02:22:52;;;;;;;22.70;10.38;;;;;;;-6.02;81.42;103134.16;5087355;28;20072;-72
2024/01/11 02:25:19;;;;;;;23.20;10.38;;;;;;;-6.01;81.47;103140.19;5067916;28;20517;-71
2024/01/11 02:27:48;;;;;;;25.70;11.65;;;;;;;-6.04;81.20;103133.13;5070419;28;20048;-73
2024/01/11 02:30:17;;;;;;;23.33;9.63;;;;;;;-6.06;81.23;103138.94;5101225;28;20041;-73
2024/01/11 02:32:47;;;;;;;22.63;8.82;;;;;;;-6.10;81.59;103141.28;5082208;28;20062;-73
2024/01/11 02:35:16;;;;;;;21.90;9.75;;;;;;;-6.14;81.50;103138.38;5083380;28;20610;-73
2024/01/11 02:37:45;;;;;;;24.40;9.63;;;;;;;-6.18;81.69;103131.22;5072856;28;20047;-73
2024/01/11 02:40:13;;;;;;;26.20;9.30;;;;;;;-6.20;81.64;103137.91;5081169;28;20117;-73
2024/01/11 02:42:41;;;;;;;25.45;10.32;;;;;;;-6.23;82.09;103136.03;5074012;28;20085;-72
2024/01/11 02:45:14;;;;;;;25.02;9.82;;;;;;;-6.27;82.04;103140.03;5080825;28;20044;-73
2024/01/11 02:47:42;;;;;;;22.73;10.63;;;;;;;-6.32;82.01;103133.63;5082528;28;20122;-73
2024/01/11 02:50:11;;;;;;;24.30;11.05;;;;;;;-6.34;82.03;103131.75;5072657;28;20714;-72
2024/01/11 02:52:39;;;;;;;24.73;10.32;;;;;;;-6.38;82.69;103135.75;5085333;28;20040;-73
2024/01/11 02:55:06;;;;;;;21.50;9.10;;;;;;;-6.40;82.62;103140.75;5087547;28;20120;-72
2024/01/11 02:57:33;;;;;;;24.27;8.82;;;;;;;-6.41;82.79;103140.66;5083289;28;20124;-73
2024/01/11 03:00:00;;;;;;;23.73;10.45;;;;;;;-6.43;83.01;103139.63;5083418;28;20079;-73
2024/01/11 03:02:28;;;;;;;21.60;9.32;;;;;;;-6.46;82.73;103144.56;5079448;28;20032;-73
2024/01/11 03:04:55;;;;;;;31.58;12.70;;;;;;;-6.50;82.64;103145.06;5073240;28;20055;-73
2024/01/11 03:07:22;;;;;;;28.98;11.48;;;;;;;-6.53;82.59;103140.63;5086090;28;20047;-72
2024/01/11 03:09:49;;;;;;;22.45;10.27;;;;;;;-6.58;83.01;103137.69;5101294;28;20567;-72
2024/01/11 03:12:16;;;;;;;27.70;11.30;;;;;;;-6.59;83.19;103132.44;5077558;28;20583;-72
2024/01/11 03:14:44;;;;;;;27.70;12.23;;;;;;;-6.62;83.18;103125.41;5085497;28;20068;-73
2024/01/11 03:17:11;;;;;;;25.25;10.48;;;;;;;-6.61;83.57;103123.75;5076494;28;20052;-73
2024/01/11 03:19:41;;;;;;;20.55;9.65;;;;;;;-6.62;83.27;103124.50;5083717;28;20063;-74
2024/01/11 03:22:08;;;;;;;32.40;10.95;;;;;;;-6.64;83.51;103123.50;5076617;28;20130;-72
2024/01/11 03:24:41;;;;;;;29.02;13.00;;;;;;;-6.64;83.79;103116.69;5085962;28;20125;-73
2024/01/11 03:27:08;;;;;;;26.60;11.40;;;;;;;-6.66;83.85;103122.47;5069540;28;20547;-73
2024/01/11 03:29:35;;;;;;;24.63;9.45;;;;;;;-6.69;83.79;103125.72;5068040;28;20184;-73
2024/01/11 03:32:03;;;;;;;24.50;10.80;;;;;;;-6.71;84.15;103125.56;5069645;28;20056;-73
2024/01/11 03:34:30;;;;;;;30.35;9.73;;;;;;;-6.68;84.29;103137.75;5067983;28;20056;-73
2024/01/11 03:36:57;;;;;;;25.55;10.88;;;;;;;-6.67;84.90;103126.72;5082580;28;20064;-73
2024/01/11 03:39:25;;;;;;;37.47;22.48;;;;;;;-6.68;84.64;103134.28;5087441;28;20563;-73
2024/01/11 03:41:52;;;;;;;30.80;10.88;;;;;;;-6.71;84.80;103130.69;5084578;28;20078;-73
2024/01/11 03:44:19;;;;;;;25.17;11.60;;;;;;;-6.74;85.17;103125.34;5085707;28;20139;-73
2024/01/11 03:46:47;;;;;;;21.45;9.05;;;;;;;-6.76;85.24;103132.03;5075314;28;20036;-72
2024/01/11 03:49:14;;;;;;;23.45;10.38;;;;;;;-6.73;85.32;103133.94;5077283;28;20044;-73
2024/01/11 03:51:41;;;;;;;23.90;10.60;;;;;;;-6.71;85.60;103143.53;5074274;28;20114;-73
2024/01/11 03:54:08;;;;;;;13.35;6.97;;;;;;;-6.71;85.85;103150.34;5076950;28;20047;-73
2024/01/11 03:56:42;;;;;;;20.83;7.95;;;;;;;-6.73;86.26;103152.81;5083494;28;20051;-73
2024/01/11 03:59:10;;;;;;;20.30;8.80;;;;;;;-6.72;86.20;103161.38;5087204;28;20071;-73
2024/01/11 04:01:41;;;;;;;19.02;9.02;;;;;;;-6.69;86.72;103158.16;5084896;28;20121;-73
2024/01/11 04:04:09;;;;;;;18.77;9.48;;;;;;;-6.68;86.84;103162.50;5080767;28;20054;-73
2024/01/11 04:06:36;;;;;;;20.92;8.88;;;;;;;-6.71;86.70;103158.91;5073347;28;20036;-73
2024/01/11 04:09:04;;;;;;;17.40;7.97;;;;;;;-6.70;86.98;103157.28;5070483;28;20064;-73
2024/01/11 04:11:31;;;;;;;22.45;9.82;;;;;;;-6.73;86.68;103163.06;5084294;28;20079;-73
2024/01/11 04:13:58;;;;;;;20.13;9.35;;;;;;;-6.74;86.97;103170.63;5097145;28;20124;-73
2024/01/11 04:16:25;;;;;;;30.17;18.88;;;;;;;-6.74;87.43;103168.97;5078067;28;20072;-73
2024/01/11 04:18:52;;;;;;;15.35;6.85;;;;;;;-6.76;87.44;103162.81;5060513;28;20411;-73
2024/01/11 04:21:28;;;;;;;21.83;8.43;;;;;;;-6.81;87.31;103152.97;5083597;28;20381;-74
2024/01/11 04:23:56;;;;;;;23.90;8.48;;;;;;;-6.83;87.63;103149.38;5088092;28;20051;-73
2024/01/11 04:26:23;;;;;;;19.15;6.75;;;;;;;-6.85;87.69;103149.28;5085928;28;20045;-74
2024/01/11 04:28:52;;;;;;;19.02;8.68;;;;;;;-6.86;87.57;103150.06;5087247;28;20059;-73
2024/01/11 04:31:24;;;;;;;23.98;9.73;;;;;;;-6.86;87.94;103160.31;5085217;28;20063;-73
2024/01/11 04:33:51;;;;;;;12.88;5.72;;;;;;;-6.90;87.67;103158.25;5083290;28;20059;-73
2024/01/11 04:36:19;;;;;;;18.00;7.68;;;;;;;-6.92;87.89;103170.09;5050811;28;20116;-73
2024/01/11 04:38:46;;;;;;;16.13;7.32;;;;;;;-6.92;88.23;103176.13;5066060;28;20125;-73
2024/01/11 04:41:15;;;;;;;8.43;3.97;;;;;;;-6.94;88.42;103177.66;5065064;28;20403;-73
2024/01/11 04:43:44;;;;;;;17.15;7.80;;;;;;;-7.00;88.35;103169.50;5062983;28;20151;-73
2024/01/11 04:46:20;;;;;;;21.67;9.63;;;;;;;-7.02;88.32;103168.47;5064039;28;20316;-73
2024/01/11 04:48:49;;;;;;;22.63;9.10;;;;;;;-7.06;88.52;103176.69;5058790;28;20071;-73
2024/01/11 04:51:18;;;;;;;13.90;6.65;;;;;;;-7.07;88.39;103182.59;5048110;28;20197;-73
2024/01/11 04:53:46;;;;;;;17.67;7.35;;;;;;;-7.07;88.77;103187.75;5063963;28;20040;-72
2024/01/11 04:56:17;;;;;;;23.77;8.85;;;;;;;-7.11;88.95;103190.81;5060615;28;20052;-74
2024/01/11 04:58:45;;;;;;;19.55;9.32;;;;;;;-7.17;88.54;103189.53;5061681;28;20033;-74
2024/01/11 05:01:14;;;;;;;12.73;7.13;;;;;;;-7.15;88.76;103196.47;5065557;28;20044;-74
2024/01/11 05:03:43;;;;;;;25.92;9.27;;;;;;;-7.13;89.02;103200.03;5059063;28;20048;-74
2024/01/11 05:06:19;;;;;;;19.05;9.23;;;;;;;-7.18;89.40;103198.03;5055055;28;20045;-73
2024/01/11 05:08:49;;;;;;;24.02;10.18;;;;;;;-7.19;89.46;103198.81;5064276;28;20098;-74
2024/01/11 05:11:24;;;;;;;20.38;9.45;;;;;;;-7.19;89.44;103192.75;5057120;28;20049;-73
2024/01/11 05:13:52;;;;;;;20.80;8.77;;;;;;;-7.22;89.40;103193.41;5059662;28;20255;-73
2024/01/11 05:16:22;;;;;;;21.92;9.00;;;;;;;-7.20;89.61;103197.00;5050856;28;20555;-73
2024/01/11 05:18:51;;;;;;;19.10;7.80;;;;;;;-7.19;89.47;103201.38;5065644;28;20033;-73
2024/01/11 05:21:19;;;;;;;13.18;6.43;;;;;;;-7.17;89.73;103202.34;5065804;28;20055;-73
2024/01/11 05:23:48;;;;;;;18.63;7.35;;;;;;;-7.17;89.79;103188.66;5061353;28;20043;-73
2024/01/11 05:26:16;;;;;;;22.33;9.48;;;;;;;-7.18;89.84;103182.66;5045592;28;20427;-73
2024/01/11 05:28:44;;;;;;;21.25;9.80;;;;;;;-7.19;89.98;103190.19;5049222;28;20095;-72
2024/01/11 05:31:14;;;;;;;17.77;8.13;;;;;;;-7.20;89.80;103189.31;5056689;28;20083;-71
2024/01/11 05:33:42;;;;;;;14.52;6.82;;;;;;;-7.20;89.68;103193.53;5060682;28;20048;-72
2024/01/11 05:36:10;;;;;;;20.30;9.80;;;;;;;-7.23;89.79;103191.63;5085065;28;20056;-71
2024/01/11 05:38:39;;;;;;;23.60;9.27;;;;;;;-7.26;89.38;103191.38;5083135;28;20048;-71
2024/01/11 05:41:08;;;;;;;19.48;7.82;;;;;;;-7.28;89.29;103200.63;5078999;28;20052;-71
2024/01/11 05:43:37;;;;;;;13.38;5.10;;;;;;;-7.26;89.36;103203.31;5098994;28;20646;-71
2024/01/11 05:46:04;;;;;;;15.60;8.15;;;;;;;-7.28;89.71;103200.63;5070480;28;20048;-71
2024/01/11 05:48:31;;;;;;;22.45;9.13;;;;;;;-7.31;89.91;103209.72;5084030;28;20595;-72
2024/01/11 05:50:59;;;;;;;23.83;10.50;;;;;;;-7.20;90.47;103209.81;5096502;28;20051;-73
2024/01/11 05:53:27;;;;;;;22.92;9.10;;;;;;;-7.08;90.67;103211.59;5088230;28;20117;-74
2024/01/11 05:55:54;;;;;;;23.65;9.95;;;;;;;-7.07;90.32;103216.81;5082465;28;20045;-72
2024/01/11 05:58:22;;;;;;;24.25;8.73;;;;;;;-7.07;90.39;103210.81;5083102;28;20036;-72
2024/01/11 06:00:49;;;;;;;24.52;9.82;;;;;;;-7.07;89.81;103210.81;5088914;28;20040;-72
2024/01/11 06:03:16;;;;;;;18.55;9.02;;;;;;;-7.15;89.55;103211.84;5082044;28;20064;-71
2024/01/11 06:05:43;;;;;;;23.63;9.82;;;;;;;-7.26;89.35;103205.88;5077850;28;20562;-71
2024/01/11 06:08:10;;;;;;;22.17;9.45;;;;;;;-7.34;88.90;103210.38;5076586;28;20428;-71
2024/01/11 06:10:39;;;;;;;22.05;10.10;;;;;;;-7.43;88.68;103207.97;5077204;28;20039;-72
2024/01/11 06:13:06;;;;;;;26.40;9.93;;;;;;;-7.52;88.49;103202.06;5068495;28;20062;-72
2024/01/11 06:15:33;;;;;;;27.17;9.07;;;;;;;-7.59;88.23;103190.44;5077118;28;20124;-71
2024/01/11 06:18:00;;;;;;;21.05;9.25;;;;;;;-7.65;88.35;103193.41;5074161;28;20070;-71
2024/01/11 06:20:29;;;;;;;24.60;9.02;;;;;;;-7.71;88.14;103209.94;5071945;28;20044;-71
2024/01/11 06:22:56;;;;;;;21.70;9.10;;;;;;;-7.78;88.06;103211.09;5071596;28;20051;-71
2024/01/11 06:25:23;;;;;;;19.73;8.75;;;;;;;-7.80;88.06;103217.75;5078610;28;20075;-71
2024/01/11 06:27:50;;;;;;;29.75;9.25;;;;;;;-7.82;88.49;103225.31;5074625;28;20105;-71
2024/01/11 06:30:17;;;;;;;24.45;10.00;;;;;;;-7.84;88.99;103226.84;5078136;28;20418;-71
2024/01/11 06:32:45;;;;;;;24.98;10.00;;;;;;;-7.86;88.70;103224.94;5076140;28;20810;-71
2024/01/11 06:35:12;;;;;;;20.95;8.40;;;;;;;-7.87;88.76;103235.94;5094916;28;20751;-71
2024/01/11 06:37:39;;;;;;;21.83;8.93;;;;;;;-7.91;88.63;103234.78;5076982;28;20116;-71
2024/01/11 06:40:08;;;;;;;29.38;10.25;;;;;;;-7.94;88.23;103231.06;5084646;28;20044;-71
2024/01/11 06:42:35;;;;;;;20.13;9.10;;;;;;;-7.99;88.22;103230.69;5092813;28;20048;-71
2024/01/11 06:45:03;;;;;;;17.77;8.80;;;;;;;-8.02;87.99;103236.44;5082591;28;20044;-71
2024/01/11 06:47:31;;;;;;;20.55;7.68;;;;;;;-7.98;88.70;103266.66;5078676;28;20492;-71
2024/01/11 06:49:59;;;;;;;26.05;10.27;;;;;;;-7.98;89.58;103292.28;5078804;28;20068;-71
2024/01/11 06:52:26;;;;;;;22.33;9.88;;;;;;;-7.96;89.80;103288.19;5082776;28;20123;-71
2024/01/11 06:54:54;;;;;;;23.38;10.18;;;;;;;-7.99;90.55;103277.66;5069001;28;20040;-71
2024/01/11 06:57:21;;;;;;;23.45;9.23;;;;;;;-8.01;90.51;103268.94;5084374;28;20523;-72
2024/01/11 06:59:49;;;;;;;21.67;10.18;;;;;;;-7.99;90.67;103262.31;5082767;28;20119;-71
2024/01/11 07:02:16;;;;;;;114.88;38.75;;;;;;;-7.94;90.10;103269.50;5069478;28;20508;-71
2024/01/11 07:04:45;;;;;;;31.70;12.90;;;;;;;-7.96;90.02;103261.66;5096032;28;20303;-71
2024/01/11 07:07:12;;;;;;;75.80;20.60;;;;;;;-7.96;89.86;103261.66;5082372;28;20044;-71
2024/01/11 07:09:39;;;;;;;40.08;17.13;;;;;;;-7.95;89.96;103263.44;5086608;28;20411;-71
2024/01/11 07:12:06;;;;;;;21.05;9.18;;;;;;;-7.91;89.74;103277.41;5071099;28;20059;-71
2024/01/11 07:14:34;;;;;;;20.38;9.93;;;;;;;-7.90;90.11;103280.13;5068401;28;20040;-71
2024/01/11 07:17:01;;;;;;;26.52;11.07;;;;;;;-7.90;90.30;103276.66;5084333;28;20400;-71
2024/01/11 07:19:28;;;;;;;70.15;26.30;;;;;;;-7.91;89.71;103265.53;5087559;28;20644;-71
2024/01/11 07:21:56;;;;;;;27.30;10.80;;;;;;;-7.92;89.71;103271.41;5084263;28;20044;-71
2024/01/11 07:24:23;;;;;;;22.77;10.43;;;;;;;-7.89;90.10;103281.00;5066966;28;20041;-71
2024/01/11 07:26:50;;;;;;;25.17;10.18;;;;;;;-7.87;90.83;103288.03;5070921;28;20551;-71
2024/01/11 07:29:17;;;;;;;20.15;7.75;;;;;;;-7.81;91.43;103291.13;5084130;28;20586;-71
2024/01/11 07:31:44;;;;;;;15.95;8.05;;;;;;;-7.78;92.09;103293.06;5072558;28;20098;-71
2024/01/11 07:34:11;;;;;;;18.17;8.43;;;;;;;-7.71;92.50;103299.59;5103072;28;20140;-71
2024/01/11 07:36:41;;;;;;;23.98;9.48;;;;;;;-7.71;92.55;103289.34;5072435;28;20562;-71
2024/01/11 07:39:08;;;;;;;23.02;10.98;;;;;;;-7.70;92.35;103289.47;5082448;28;21991;-71
2024/01/11 07:41:35;;;;;;;21.73;9.95;;;;;;;-7.71;92.38;103284.22;5082824;28;20039;-71
2024/01/11 07:44:05;;;;;;;27.77;10.30;;;;;;;-7.68;91.73;103281.94;5075705;28;20051;-71
2024/01/11 07:46:32;;;;;;;33.47;11.65;;;;;;;-7.67;91.94;103266.66;5081761;28;20043;-71
2024/01/11 07:49:12;;;;;;;60.15;23.83;;;;;;;-7.67;91.34;103258.97;5067237;28;20044;-71
2024/01/11 07:51:39;;;;;;;63.47;24.92;;;;;;;-7.66;91.15;103254.75;5078754;28;20051;-71
2024/01/11 07:54:06;;;;;;;55.25;20.65;;;;;;;-7.66;90.98;103260.78;5084704;28;20043;-71
2024/01/11 07:56:34;;;;;;;62.08;20.50;;;;;;;-7.69;90.71;103251.94;5080046;28;20044;-71
2024/01/11 07:59:02;;;;;;;56.35;21.88;;;;;;;-7.68;90.57;103256.31;5078553;28;20044;-71
2024/01/11 08:01:29;;;;;;;35.75;13.88;;;;;;;-7.66;90.41;103263.34;5071245;28;20044;-71
2024/01/11 08:03:56;;;;;;;53.28;19.80;;;;;;;-7.63;90.50;103259.25;5081341;28;20052;-71
2024/01/11 08:06:23;;;;;;;28.77;10.88;;;;;;;-7.60;90.41;103273.22;5076980;28;20043;-71
2024/01/11 08:08:51;;;;;;;23.00;9.48;;;;;;;-7.55;90.64;103277.03;5079298;28;20140;-71
2024/01/11 08:11:20;;;;;;;21.48;9.68;;;;;;;-7.52;90.62;103261.00;5074920;28;20118;-71
2024/01/11 08:13:47;;;;;;;32.30;15.32;;;;;;;-7.48;90.85;103260.50;5067997;28;20044;-71
2024/01/11 08:16:18;;;;;;;19.25;10.05;;;;;;;-7.43;91.03;103266.91;5068668;28;20059;-71
2024/01/11 08:18:45;;;;;;;20.80;9.45;;;;;;;-7.38;90.74;103262.16;5071449;28;20227;-71
2024/01/11 08:21:14;;;;;;;21.42;10.07;;;;;;;-7.36;91.08;103252.91;5076917;28;20040;-71
2024/01/11 08:23:45;;;;;;;32.28;13.10;;;;;;;-7.27;91.05;103256.22;5101337;28;20515;-77
2024/01/11 08:26:14;;;;;;;25.20;10.50;;;;;;;-7.19;90.79;103244.94;5085560;28;20040;-70
2024/01/11 08:28:42;;;;;;;19.90;9.68;;;;;;;-7.09;91.19;103253.38;5077022;28;20042;-70
2024/01/11 08:31:09;;;;;;;23.33;10.13;;;;;;;-7.00;91.56;103274.63;5084566;28;20101;-70
2024/01/11 08:33:37;;;;;;;21.40;7.35;;;;;;;-6.90;92.01;103268.56;5093468;28;20040;-70
2024/01/11 08:36:06;;;;;;;20.65;8.02;;;;;;;-6.84;91.95;103271.66;5086409;28;20542;-70
2024/01/11 08:38:35;;;;;;;20.00;9.00;;;;;;;-6.78;92.18;103274.69;5072189;28;20051;-70
2024/01/11 08:41:03;;;;;;;20.42;8.20;;;;;;;-6.73;92.47;103270.84;5079895;28;20052;-70
2024/01/11 08:43:30;;;;;;;23.08;9.93;;;;;;;-6.68;92.27;103260.94;5087836;28;20519;-70
2024/01/11 08:45:59;;;;;;;20.55;9.80;;;;;;;-6.60;92.67;103258.94;5073253;28;20129;-70
2024/01/11 08:48:27;;;;;;;23.02;8.75;;;;;;;-6.53;92.45;103263.81;5084441;28;20391;-70
2024/01/11 08:50:54;;;;;;;22.63;10.05;;;;;;;-6.43;92.52;103273.13;5073918;28;20048;-70
2024/01/11 08:53:21;;;;;;;19.63;9.63;;;;;;;-6.33;92.38;103274.75;5067631;28;20137;-70
2024/01/11 08:55:49;;;;;;;17.05;8.65;;;;;;;-6.23;92.34;103274.69;5083095;28;20086;-70
2024/01/11 08:58:16;;;;;;;21.55;8.82;;;;;;;-6.15;92.27;103288.09;5078101;28;20043;-70
2024/01/11 09:00:43;;;;;;;22.58;10.05;;;;;;;-6.11;91.88;103288.50;5075535;28;20048;-70
2024/01/11 09:03:13;;;;;;;17.85;8.70;;;;;;;-6.01;91.92;103291.75;5067718;28;20070;-71
2024/01/11 09:05:41;;;;;;;16.00;7.03;;;;;;;-5.89;91.71;103287.50;5066266;28;20051;-71
2024/01/11 09:08:09;;;;;;;27.77;11.98;;;;;;;-5.81;91.21;103295.81;5072754;28;20040;-71
2024/01/11 09:10:36;;;;;;;22.55;9.90;;;;;;;-5.78;91.13;103296.94;5075131;28;20040;-70
2024/01/11 09:13:03;;;;;;;28.55;12.02;;;;;;;-5.70;91.14;103297.53;5083772;28;20385;-70
2024/01/11 09:15:30;;;;;;;23.50;10.15;;;;;;;-5.59;90.77;103302.59;5091265;28;20507;-70
2024/01/11 09:18:00;;;;;;;22.15;10.18;;;;;;;-5.54;90.66;103304.72;5086906;28;20556;-70
2024/01/11 09:20:30;;;;;;;21.67;9.13;;;;;;;-5.42;90.40;103304.75;5082053;28;20498;-70
2024/01/11 09:22:57;;;;;;;24.00;10.70;;;;;;;-5.32;89.94;103306.34;5091703;28;20044;-70
2024/01/11 09:25:25;;;;;;;23.52;10.52;;;;;;;-5.24;89.53;103320.66;5089211;28;20563;-70
2024/01/11 09:27:52;;;;;;;27.20;10.95;;;;;;;-5.14;89.44;103314.53;5089820;28;20043;-70
2024/01/11 09:30:19;;;;;;;23.13;10.35;;;;;;;-5.06;89.27;103315.06;5081199;28;20576;-71
2024/01/11 09:32:47;;;;;;;18.48;8.20;;;;;;;-4.94;88.30;103327.97;5070305;28;20135;-70
2024/01/11 09:35:15;;;;;;;23.13;10.25;;;;;;;-4.82;87.25;103321.13;5070838;28;20060;-70
2024/01/11 09:37:45;;;;;;;21.30;9.90;;;;;;;-4.73;86.73;103328.63;5059363;28;20047;-70
2024/01/11 09:40:13;;;;;;;23.35;11.73;;;;;;;-4.70;86.59;103322.00;5081672;28;20113;-70
2024/01/11 09:42:40;;;;;;;26.30;12.05;;;;;;;-4.62;86.66;103325.16;5102161;28;20098;-70
2024/01/11 09:45:15;;;;;;;27.83;11.38;;;;;;;-4.52;86.19;103329.25;5089314;28;20040;-70
2024/01/11 09:47:48;;;;;;;27.63;12.52;;;;;;;-4.49;86.14;103316.63;5072725;28;20453;-70
2024/01/11 09:50:17;;;;;;;24.17;10.68;;;;;;;-4.42;86.43;103321.41;5082691;28;20043;-70
2024/01/11 09:52:50;;;;;;;18.65;9.18;;;;;;;-4.30;86.05;103321.41;5088902;28;20043;-70
2024/01/11 09:55:18;;;;;;;23.10;11.10;;;;;;;-4.20;85.46;103335.81;5080651;28;20037;-70
2024/01/11 09:57:51;;;;;;;30.95;14.05;;;;;;;-4.12;84.89;103332.09;5086082;28;20052;-70
2024/01/11 10:00:23;;;;;;;26.85;11.18;;;;;;;-3.97;84.13;103331.38;5052574;28;20504;-69
2024/01/11 10:02:51;;;;;;;26.25;9.80;;;;;;;-3.90;83.34;103343.91;5081091;28;20043;-71
2024/01/11 10:05:19;;;;;;;16.40;8.38;;;;;;;-3.84;82.83;103346.91;5084909;28;20044;-71
2024/01/11 10:07:46;;;;;;;24.85;11.73;;;;;;;-3.75;82.02;103354.38;5079612;28;20032;-69
2024/01/11 10:10:16;;;;;;;30.40;20.25;;;;;;;-3.68;81.83;103355.69;5073537;28;20127;-70
2024/01/11 10:12:43;;;;;;;26.25;12.20;;;;;;;-3.61;80.72;103350.16;5070140;28;20062;-70
2024/01/11 10:15:11;;;;;;;26.23;11.55;;;;;;;-3.60;80.73;103349.38;5081982;28;20064;-70
2024/01/11 10:17:46;;;;;;;23.17;10.73;;;;;;;-3.51;80.74;103354.28;5072474;28;20044;-70
2024/01/11 10:20:15;;;;;;;31.77;20.38;;;;;;;-3.40;80.00;103357.56;5075143;28;20037;-69
2024/01/11 10:22:46;;;;;;;26.48;12.30;;;;;;;-3.28;78.46;103351.56;5052395;28;20412;-70
2024/01/11 10:25:15;;;;;;;25.98;10.23;;;;;;;-3.20;76.93;103357.22;5068445;28;20044;-70
2024/01/11 10:27:45;;;;;;;25.33;11.68;;;;;;;-3.18;77.66;103347.03;5082873;28;20043;-69
2024/01/11 10:30:19;;;;;;;23.05;10.57;;;;;;;-3.11;77.85;103344.06;5090541;28;20119;-70
2024/01/11 10:32:47;;;;;;;33.25;20.58;;;;;;;-3.00;77.12;103347.38;5074979;28;20780;-69
2024/01/11 10:35:17;;;;;;;29.45;12.32;;;;;;;-2.99;77.36;103344.88;5082855;28;20083;-70
2024/01/11 10:37:44;;;;;;;26.13;11.70;;;;;;;-2.92;76.70;103348.75;5086179;28;20044;-70
2024/01/11 10:40:15;;;;;;;34.15;13.15;;;;;;;-2.87;76.21;103346.47;5083356;28;20043;-70
2024/01/11 10:42:51;;;;;;;40.88;14.80;;;;;;;-2.79;76.45;103354.69;5086718;28;20044;-70
2024/01/11 10:45:20;;;;;;;27.40;12.70;;;;;;;-2.75;76.27;103343.78;5096083;28;20059;-70
2024/01/11 10:48:04;;;;;;;26.58;12.13;;;;;;;-2.69;76.21;103342.50;5070861;28;20048;-70
2024/01/11 10:50:39;;;;;;;29.52;13.93;;;;;;;-2.62;75.66;103338.63;5098289;28;20040;-71
2024/01/11 10:53:25;;;;;;;22.80;11.13;;;;;;;-2.54;75.81;103354.59;5088977;28;20067;-71
2024/01/11 10:55:55;;;;;;;20.73;11.02;;;;;;;-2.43;74.64;103357.88;5094520;28;20044;-70
2024/01/11 10:58:24;;;;;;;27.90;11.75;;;;;;;-2.41;75.04;103358.88;5077546;28;20124;-71
2024/01/11 11:00:56;;;;;;;30.38;14.15;;;;;;;-2.36;75.42;103349.72;5084599;28;20143;-70
2024/01/11 11:03:25;;;;;;;35.17;20.98;;;;;;;-2.27;75.08;103349.41;5069693;28;20055;-70
2024/01/11 11:05:57;;;;;;;29.38;14.15;;;;;;;-2.16;73.63;103357.81;5078684;28;20041;-70
2024/01/11 11:08:26;;;;;;;28.27;11.90;;;;;;;-2.13;73.59;103347.69;5068037;28;20440;-70
2024/01/11 11:11:05;;;;;;;21.60;10.93;;;;;;;-2.08;73.34;103342.00;5072991;28;20094;-70
2024/01/11 11:13:36;;;;;;;30.38;14.43;;;;;;;-2.06;73.41;103340.41;5087887;28;20039;-70
2024/01/11 11:16:04;;;;;;;28.52;13.13;;;;;;;-1.99;73.20;103344.28;5084265;28;20044;-70
2024/01/11 11:18:35;;;;;;;22.38;10.50;;;;;;;-1.91;73.06;103339.56;5088846;28;20119;-70